sensor_id;sensor_type;location;lat;lon;timestamp;pressure;altitude;pressure_sealevel;temperature;humidity
55424;BME280;41294;42.666;23.350;2023-05-12T00:02:15;95188.78;;;9.85;85.24
55424;BME280;41294;42.666;23.350;2023-05-12T00:04:40;95174.56;;;9.95;84.64
55424;BME280;41294;42.666;23.350;2023-05-12T00:07:06;95193.75;;;9.83;85.50
55424;BME280;41294;42.666;23.350;2023-05-12T00:09:31;95185.97;;;9.80;85.35
55424;BME280;41294;42.666;23.350;2023-05-12T00:11:57;95181.09;;;9.91;84.88
55424;BME280;41294;42.666;23.350;2023-05-12T00:14:23;95179.13;;;9.82;85.81
55424;BME280;41294;42.666;23.350;2023-05-12T00:16:48;95167.97;;;9.78;85.15
55424;BME280;41294;42.666;23.350;2023-05-12T00:19:16;95187.25;;;9.76;85.71
55424;BME280;41294;42.666;23.350;2023-05-12T00:21:42;95178.31;;;9.73;85.75
55424;BME280;41294;42.666;23.350;2023-05-12T00:24:08;95174.34;;;9.69;86.60
55424;BME280;41294;42.666;23.350;2023-05-12T00:26:33;95177.25;;;9.71;86.65
55424;BME280;41294;42.666;23.350;2023-05-12T00:28:58;95181.28;;;9.63;86.54
55424;BME280;41294;42.666;23.350;2023-05-12T00:31:24;95181.28;;;9.63;87.00
55424;BME280;41294;42.666;23.350;2023-05-12T00:33:50;95184.84;;;9.69;86.67
55424;BME280;41294;42.666;23.350;2023-05-12T00:36:15;95183.81;;;9.54;87.44
55424;BME280;41294;42.666;23.350;2023-05-12T00:38:41;95196.34;;;9.50;88.00
55424;BME280;41294;42.666;23.350;2023-05-12T00:41:06;95189.06;;;9.54;88.91
55424;BME280;41294;42.666;23.350;2023-05-12T00:43:31;95200.44;;;9.51;88.91
55424;BME280;41294;42.666;23.350;2023-05-12T00:45:58;95190.06;;;9.47;90.13
55424;BME280;41294;42.666;23.350;2023-05-12T00:48:24;95189.19;;;9.50;90.13
55424;BME280;41294;42.666;23.350;2023-05-12T00:50:50;95183.22;;;9.50;91.04
55424;BME280;41294;42.666;23.350;2023-05-12T00:53:16;95193.94;;;9.55;91.08
55424;BME280;41294;42.666;23.350;2023-05-12T00:55:41;95202.00;;;9.61;91.46
55424;BME280;41294;42.666;23.350;2023-05-12T00:58:07;95200.09;;;9.61;91.76
55424;BME280;41294;42.666;23.350;2023-05-12T01:00:33;95201.00;;;9.21;93.04
55424;BME280;41294;42.666;23.350;2023-05-12T01:02:58;95198.59;;;9.14;95.25
55424;BME280;41294;42.666;23.350;2023-05-12T01:05:41;95205.72;;;9.01;95.37
55424;BME280;41294;42.666;23.350;2023-05-12T01:08:11;95204.56;;;9.02;96.38
55424;BME280;41294;42.666;23.350;2023-05-12T01:10:42;95198.59;;;8.89;97.39
55424;BME280;41294;42.666;23.350;2023-05-12T01:13:08;95209.91;;;8.86;97.38
55424;BME280;41294;42.666;23.350;2023-05-12T01:15:34;95208.56;;;8.82;98.42
55424;BME280;41294;42.666;23.350;2023-05-12T01:18:01;95196.91;;;8.95;97.36
55424;BME280;41294;42.666;23.350;2023-05-12T01:20:27;95196.78;;;8.86;97.72
55424;BME280;41294;42.666;23.350;2023-05-12T01:22:54;95200.34;;;8.80;97.32
55424;BME280;41294;42.666;23.350;2023-05-12T01:25:22;95196.03;;;8.73;98.23
55424;BME280;41294;42.666;23.350;2023-05-12T01:27:48;95212.84;;;8.63;98.54
55424;BME280;41294;42.666;23.350;2023-05-12T01:30:16;95210.72;;;8.58;99.58
55424;BME280;41294;42.666;23.350;2023-05-12T01:32:42;95214.50;;;8.57;99.48
55424;BME280;41294;42.666;23.350;2023-05-12T01:35:08;95197.81;;;8.64;99.61
55424;BME280;41294;42.666;23.350;2023-05-12T01:37:33;95203.69;;;8.55;99.17
55424;BME280;41294;42.666;23.350;2023-05-12T01:39:59;95224.03;;;8.51;100.00
55424;BME280;41294;42.666;23.350;2023-05-12T01:42:24;95202.59;;;8.40;100.00
55424;BME280;41294;42.666;23.350;2023-05-12T01:44:49;95199.66;;;8.38;100.00
55424;BME280;41294;42.666;23.350;2023-05-12T01:47:16;95206.78;;;8.38;100.00
55424;BME280;41294;42.666;23.350;2023-05-12T01:49:41;95200.59;;;8.32;100.00
55424;BME280;41294;42.666;23.350;2023-05-12T01:52:06;95207.09;;;8.27;100.00
55424;BME280;41294;42.666;23.350;2023-05-12T01:54:32;95211.59;;;8.27;100.00
55424;BME280;41294;42.666;23.350;2023-05-12T01:56:57;95209.66;;;8.15;100.00
55424;BME280;41294;42.666;23.350;2023-05-12T01:59:22;95203.81;;;8.23;100.00
55424;BME280;41294;42.666;23.350;2023-05-12T02:01:48;95202.00;;;8.20;100.00
55424;BME280;41294;42.666;23.350;2023-05-12T02:04:13;95194.47;;;8.22;100.00
55424;BME280;41294;42.666;23.350;2023-05-12T02:06:39;95204.50;;;8.12;100.00
55424;BME280;41294;42.666;23.350;2023-05-12T02:09:04;95200.31;;;8.14;100.00
55424;BME280;41294;42.666;23.350;2023-05-12T02:11:30;95213.16;;;8.24;100.00
55424;BME280;41294;42.666;23.350;2023-05-12T02:13:55;95214.94;;;8.27;100.00
55424;BME280;41294;42.666;23.350;2023-05-12T02:16:21;95208.56;;;8.28;100.00
55424;BME280;41294;42.666;23.350;2023-05-12T02:18:46;95199.81;;;8.19;100.00
55424;BME280;41294;42.666;23.350;2023-05-12T02:21:12;95212.50;;;8.20;100.00
55424;BME280;41294;42.666;23.350;2023-05-12T02:23:38;95199.63;;;8.26;100.00
55424;BME280;41294;42.666;23.350;2023-05-12T02:26:03;95198.25;;;8.21;100.00
55424;BME280;41294;42.666;23.350;2023-05-12T02:28:29;95198.66;;;8.20;100.00
55424;BME280;41294;42.666;23.350;2023-05-12T02:30:54;95193.84;;;8.18;100.00
55424;BME280;41294;42.666;23.350;2023-05-12T02:33:20;95193.09;;;8.18;100.00
55424;BME280;41294;42.666;23.350;2023-05-12T02:35:47;95198.34;;;8.02;100.00
55424;BME280;41294;42.666;23.350;2023-05-12T02:38:12;95202.25;;;8.10;100.00
55424;BME280;41294;42.666;23.350;2023-05-12T02:40:38;95200.63;;;8.16;100.00
55424;BME280;41294;42.666;23.350;2023-05-12T02:43:04;95202.47;;;8.03;100.00
55424;BME280;41294;42.666;23.350;2023-05-12T02:45:29;95196.34;;;7.94;100.00
55424;BME280;41294;42.666;23.350;2023-05-12T02:47:55;95191.13;;;7.78;100.00
55424;BME280;41294;42.666;23.350;2023-05-12T02:50:20;95194.81;;;7.80;100.00
55424;BME280;41294;42.666;23.350;2023-05-12T02:52:46;95196.06;;;7.76;100.00
55424;BME280;41294;42.666;23.350;2023-05-12T02:55:12;95194.72;;;7.84;100.00
55424;BME280;41294;42.666;23.350;2023-05-12T02:57:37;95190.88;;;7.88;100.00
55424;BME280;41294;42.666;23.350;2023-05-12T03:00:04;95184.25;;;7.84;100.00
55424;BME280;41294;42.666;23.350;2023-05-12T03:02:34;95186.56;;;7.66;100.00
55424;BME280;41294;42.666;23.350;2023-05-12T03:05:00;95200.13;;;7.77;100.00
55424;BME280;41294;42.666;23.350;2023-05-12T03:07:25;95203.44;;;7.65;100.00
55424;BME280;41294;42.666;23.350;2023-05-12T03:09:51;95197.72;;;7.54;100.00
55424;BME280;41294;42.666;23.350;2023-05-12T03:12:16;95198.28;;;7.61;100.00
55424;BME280;41294;42.666;23.350;2023-05-12T03:14:42;95203.59;;;7.58;100.00
55424;BME280;41294;42.666;23.350;2023-05-12T03:17:07;95206.88;;;7.62;100.00
55424;BME280;41294;42.666;23.350;2023-05-12T03:19:33;95194.53;;;7.62;100.00
55424;BME280;41294;42.666;23.350;2023-05-12T03:21:59;95198.53;;;7.51;100.00
55424;BME280;41294;42.666;23.350;2023-05-12T03:24:25;95209.16;;;7.60;100.00
55424;BME280;41294;42.666;23.350;2023-05-12T03:26:50;95205.56;;;7.54;100.00
55424;BME280;41294;42.666;23.350;2023-05-12T03:29:16;95195.09;;;7.54;100.00
55424;BME280;41294;42.666;23.350;2023-05-12T03:31:41;95206.06;;;7.65;100.00
55424;BME280;41294;42.666;23.350;2023-05-12T03:34:07;95218.31;;;7.68;100.00
55424;BME280;41294;42.666;23.350;2023-05-12T03:36:32;95223.72;;;7.61;100.00
55424;BME280;41294;42.666;23.350;2023-05-12T03:38:57;95221.69;;;7.52;100.00
55424;BME280;41294;42.666;23.350;2023-05-12T03:41:23;95214.56;;;7.53;100.00
55424;BME280;41294;42.666;23.350;2023-05-12T03:43:48;95215.47;;;7.62;100.00
55424;BME280;41294;42.666;23.350;2023-05-12T03:46:14;95221.78;;;7.49;100.00
55424;BME280;41294;42.666;23.350;2023-05-12T03:48:39;95219.41;;;7.54;100.00
55424;BME280;41294;42.666;23.350;2023-05-12T03:51:05;95218.66;;;7.54;100.00
55424;BME280;41294;42.666;23.350;2023-05-12T03:53:30;95216.38;;;7.56;100.00
55424;BME280;41294;42.666;23.350;2023-05-12T03:55:56;95213.75;;;7.56;100.00
55424;BME280;41294;42.666;23.350;2023-05-12T03:58:22;95216.38;;;7.56;100.00
55424;BME280;41294;42.666;23.350;2023-05-12T04:00:48;95216.19;;;7.63;100.00
55424;BME280;41294;42.666;23.350;2023-05-12T04:03:14;95224.88;;;7.60;100.00
55424;BME280;41294;42.666;23.350;2023-05-12T04:05:40;95225.34;;;7.71;100.00
55424;BME280;41294;42.666;23.350;2023-05-12T04:08:07;95234.34;;;7.70;100.00
55424;BME280;41294;42.666;23.350;2023-05-12T04:10:37;95234.94;;;7.77;100.00
55424;BME280;41294;42.666;23.350;2023-05-12T04:13:02;95241.06;;;7.87;100.00
55424;BME280;41294;42.666;23.350;2023-05-12T04:15:28;95239.56;;;7.86;100.00
55424;BME280;41294;42.666;23.350;2023-05-12T04:17:53;95241.00;;;7.74;100.00
55424;BME280;41294;42.666;23.350;2023-05-12T04:20:18;95240.59;;;7.76;100.00
55424;BME280;41294;42.666;23.350;2023-05-12T04:22:44;95244.00;;;7.89;100.00
55424;BME280;41294;42.666;23.350;2023-05-12T04:25:09;95248.44;;;7.92;100.00
55424;BME280;41294;42.666;23.350;2023-05-12T04:27:35;95236.44;;;8.07;100.00
55424;BME280;41294;42.666;23.350;2023-05-12T04:30:00;95230.41;;;7.94;100.00
55424;BME280;41294;42.666;23.350;2023-05-12T04:32:25;95234.00;;;8.00;100.00
55424;BME280;41294;42.666;23.350;2023-05-12T04:34:51;95233.50;;;8.05;100.00
55424;BME280;41294;42.666;23.350;2023-05-12T04:37:19;95238.25;;;8.10;100.00
55424;BME280;41294;42.666;23.350;2023-05-12T04:39:46;95240.97;;;8.06;100.00
55424;BME280;41294;42.666;23.350;2023-05-12T04:42:12;95230.38;;;8.10;100.00
55424;BME280;41294;42.666;23.350;2023-05-12T04:44:37;95226.91;;;8.13;100.00
55424;BME280;41294;42.666;23.350;2023-05-12T04:47:03;95235.28;;;8.08;100.00
55424;BME280;41294;42.666;23.350;2023-05-12T04:49:28;95239.63;;;8.14;100.00
55424;BME280;41294;42.666;23.350;2023-05-12T04:51:54;95232.44;;;8.02;100.00
55424;BME280;41294;42.666;23.350;2023-05-12T04:54:19;95233.00;;;8.10;100.00
55424;BME280;41294;42.666;23.350;2023-05-12T04:56:45;95238.09;;;8.01;100.00
55424;BME280;41294;42.666;23.350;2023-05-12T04:59:10;95239.06;;;8.07;100.00
55424;BME280;41294;42.666;23.350;2023-05-12T05:01:36;95242.00;;;8.09;100.00
55424;BME280;41294;42.666;23.350;2023-05-12T05:04:01;95247.88;;;8.13;100.00
55424;BME280;41294;42.666;23.350;2023-05-12T05:06:27;95243.50;;;8.10;100.00
55424;BME280;41294;42.666;23.350;2023-05-12T05:08:52;95243.50;;;8.10;100.00
55424;BME280;41294;42.666;23.350;2023-05-12T05:11:20;95239.56;;;8.18;100.00
55424;BME280;41294;42.666;23.350;2023-05-12T05:13:46;95247.16;;;8.28;100.00
55424;BME280;41294;42.666;23.350;2023-05-12T05:16:12;95241.19;;;8.27;100.00
55424;BME280;41294;42.666;23.350;2023-05-12T05:18:37;95245.59;;;8.14;100.00
55424;BME280;41294;42.666;23.350;2023-05-12T05:21:05;95243.50;;;8.10;100.00
55424;BME280;41294;42.666;23.350;2023-05-12T05:23:31;95245.25;;;8.13;100.00
55424;BME280;41294;42.666;23.350;2023-05-12T05:25:56;95248.81;;;8.06;100.00
55424;BME280;41294;42.666;23.350;2023-05-12T05:28:21;95245.59;;;8.14;100.00
55424;BME280;41294;42.666;23.350;2023-05-12T05:30:47;95249.34;;;8.29;100.00
55424;BME280;41294;42.666;23.350;2023-05-12T05:33:12;95251.34;;;8.25;100.00
55424;BME280;41294;42.666;23.350;2023-05-12T05:35:38;95243.41;;;8.13;100.00
55424;BME280;41294;42.666;23.350;2023-05-12T05:38:03;95248.72;;;8.10;100.00
55424;BME280;41294;42.666;23.350;2023-05-12T05:40:28;95250.59;;;8.25;100.00
55424;BME280;41294;42.666;23.350;2023-05-12T05:42:54;95258.44;;;8.25;100.00
55424;BME280;41294;42.666;23.350;2023-05-12T05:45:19;95254.38;;;8.24;100.00
55424;BME280;41294;42.666;23.350;2023-05-12T05:47:45;95245.72;;;8.39;100.00
55424;BME280;41294;42.666;23.350;2023-05-12T05:50:11;95253.56;;;8.39;100.00
55424;BME280;41294;42.666;23.350;2023-05-12T05:52:37;95264.44;;;8.54;100.00
55424;BME280;41294;42.666;23.350;2023-05-12T05:55:02;95257.22;;;8.58;100.00
55424;BME280;41294;42.666;23.350;2023-05-12T05:57:28;95261.72;;;8.57;100.00
55424;BME280;41294;42.666;23.350;2023-05-12T05:59:53;95265.47;;;8.56;100.00
55424;BME280;41294;42.666;23.350;2023-05-12T06:02:18;95259.88;;;8.70;100.00
55424;BME280;41294;42.666;23.350;2023-05-12T06:04:47;95257.03;;;8.65;100.00
55424;BME280;41294;42.666;23.350;2023-05-12T06:07:13;95259.22;;;8.66;100.00
55424;BME280;41294;42.666;23.350;2023-05-12T06:09:38;95256.53;;;8.82;100.00
55424;BME280;41294;42.666;23.350;2023-05-12T06:12:03;95268.19;;;8.81;100.00
55424;BME280;41294;42.666;23.350;2023-05-12T06:14:29;95263.22;;;8.71;100.00
55424;BME280;41294;42.666;23.350;2023-05-12T06:16:54;95268.47;;;8.71;100.00
55424;BME280;41294;42.666;23.350;2023-05-12T06:19:20;95264.22;;;8.89;100.00
55424;BME280;41294;42.666;23.350;2023-05-12T06:21:45;95270.81;;;8.81;100.00
55424;BME280;41294;42.666;23.350;2023-05-12T06:24:11;95265.16;;;8.95;100.00
55424;BME280;41294;42.666;23.350;2023-05-12T06:26:36;95274.59;;;8.80;100.00
55424;BME280;41294;42.666;23.350;2023-05-12T06:29:01;95268.81;;;8.85;100.00
55424;BME280;41294;42.666;23.350;2023-05-12T06:31:27;95279.06;;;9.08;100.00
55424;BME280;41294;42.666;23.350;2023-05-12T06:33:53;95281.03;;;9.16;100.00
55424;BME280;41294;42.666;23.350;2023-05-12T06:36:18;95278.19;;;9.11;100.00
55424;BME280;41294;42.666;23.350;2023-05-12T06:38:43;95293.56;;;9.25;100.00
55424;BME280;41294;42.666;23.350;2023-05-12T06:41:09;95282.31;;;9.24;100.00
55424;BME280;41294;42.666;23.350;2023-05-12T06:43:34;95279.78;;;9.08;100.00
55424;BME280;41294;42.666;23.350;2023-05-12T06:46:00;95289.47;;;9.36;100.00
55424;BME280;41294;42.666;23.350;2023-05-12T06:48:26;95279.78;;;9.21;100.00
55424;BME280;41294;42.666;23.350;2023-05-12T06:50:51;95290.81;;;9.16;100.00
55424;BME280;41294;42.666;23.350;2023-05-12T06:53:16;95295.13;;;9.22;100.00
55424;BME280;41294;42.666;23.350;2023-05-12T06:55:42;95282.84;;;9.32;100.00
55424;BME280;41294;42.666;23.350;2023-05-12T06:58:08;95290.72;;;9.32;100.00
55424;BME280;41294;42.666;23.350;2023-05-12T07:00:33;95292.81;;;9.24;100.00
55424;BME280;41294;42.666;23.350;2023-05-12T07:02:58;95277.91;;;9.46;100.00
55424;BME280;41294;42.666;23.350;2023-05-12T07:05:24;95285.03;;;9.46;100.00
55424;BME280;41294;42.666;23.350;2023-05-12T07:07:49;95277.06;;;9.37;98.80
55424;BME280;41294;42.666;23.350;2023-05-12T07:10:15;95289.78;;;9.63;99.03
55424;BME280;41294;42.666;23.350;2023-05-12T07:12:40;95287.44;;;9.53;99.47
55424;BME280;41294;42.666;23.350;2023-05-12T07:15:06;95296.09;;;9.53;99.88
55424;BME280;41294;42.666;23.350;2023-05-12T07:17:32;95289.88;;;9.72;98.26
55424;BME280;41294;42.666;23.350;2023-05-12T07:19:58;95285.34;;;9.73;96.92
55424;BME280;41294;42.666;23.350;2023-05-12T07:22:23;95294.81;;;9.58;97.05
55424;BME280;41294;42.666;23.350;2023-05-12T07:25:07;95289.69;;;9.54;98.15
55424;BME280;41294;42.666;23.350;2023-05-12T07:27:33;95286.00;;;9.64;98.68
55424;BME280;41294;42.666;23.350;2023-05-12T07:29:59;95298.81;;;9.75;97.35
55424;BME280;41294;42.666;23.350;2023-05-12T07:32:24;95296.28;;;9.83;98.09
55424;BME280;41294;42.666;23.350;2023-05-12T07:34:50;95287.19;;;10.09;97.13
55424;BME280;41294;42.666;23.350;2023-05-12T07:37:15;95288.09;;;10.28;96.88
55424;BME280;41294;42.666;23.350;2023-05-12T07:39:40;95284.25;;;10.07;96.28
55424;BME280;41294;42.666;23.350;2023-05-12T07:42:06;95296.59;;;9.98;96.67
55424;BME280;41294;42.666;23.350;2023-05-12T07:44:31;95300.16;;;9.91;97.59
55424;BME280;41294;42.666;23.350;2023-05-12T07:46:57;95298.16;;;9.95;98.24
55424;BME280;41294;42.666;23.350;2023-05-12T07:49:23;95301.00;;;9.76;98.71
55424;BME280;41294;42.666;23.350;2023-05-12T07:51:48;95297.75;;;9.84;98.86
55424;BME280;41294;42.666;23.350;2023-05-12T07:54:14;95297.50;;;9.91;96.69
55424;BME280;41294;42.666;23.350;2023-05-12T07:56:39;95286.06;;;9.98;96.55
55424;BME280;41294;42.666;23.350;2023-05-12T07:59:04;95301.28;;;10.15;96.31
55424;BME280;41294;42.666;23.350;2023-05-12T08:01:30;95297.03;;;10.30;96.21
55424;BME280;41294;42.666;23.350;2023-05-12T08:03:56;95286.16;;;10.62;95.65
55424;BME280;41294;42.666;23.350;2023-05-12T08:06:21;95290.06;;;11.00;93.82
55424;BME280;41294;42.666;23.350;2023-05-12T08:08:46;95277.97;;;11.12;90.99
55424;BME280;41294;42.666;23.350;2023-05-12T08:11:12;95293.50;;;10.67;89.29
55424;BME280;41294;42.666;23.350;2023-05-12T08:13:37;95297.66;;;10.56;92.71
55424;BME280;41294;42.666;23.350;2023-05-12T08:16:03;95294.38;;;10.64;90.89
55424;BME280;41294;42.666;23.350;2023-05-12T08:18:29;95305.38;;;10.50;89.74
55424;BME280;41294;42.666;23.350;2023-05-12T08:20:55;95289.06;;;10.55;90.44
55424;BME280;41294;42.666;23.350;2023-05-12T08:23:20;95301.69;;;10.48;91.67
55424;BME280;41294;42.666;23.350;2023-05-12T08:25:45;95289.66;;;10.59;92.40
55424;BME280;41294;42.666;23.350;2023-05-12T08:28:13;95288.09;;;11.13;89.19
55424;BME280;41294;42.666;23.350;2023-05-12T08:30:39;95288.56;;;10.69;88.27
55424;BME280;41294;42.666;23.350;2023-05-12T08:33:04;95295.91;;;10.74;89.61
55424;BME280;41294;42.666;23.350;2023-05-12T08:35:29;95293.50;;;10.88;87.97
55424;BME280;41294;42.666;23.350;2023-05-12T08:37:55;95291.31;;;10.87;88.00
55424;BME280;41294;42.666;23.350;2023-05-12T08:40:23;95289.97;;;10.61;90.00
55424;BME280;41294;42.666;23.350;2023-05-12T08:45:37;95300.88;;;10.72;88.89
55424;BME280;41294;42.666;23.350;2023-05-12T08:48:06;95291.31;;;10.87;87.87
55424;BME280;41294;42.666;23.350;2023-05-12T08:50:34;95280.19;;;10.83;87.21
55424;BME280;41294;42.666;23.350;2023-05-12T08:53:02;95287.94;;;11.08;87.41
55424;BME280;41294;42.666;23.350;2023-05-12T08:55:28;95285.41;;;11.04;86.48
55424;BME280;41294;42.666;23.350;2023-05-12T08:57:55;95284.66;;;11.04;86.41
55424;BME280;41294;42.666;23.350;2023-05-12T09:00:22;95284.69;;;11.34;85.67
55424;BME280;41294;42.666;23.350;2023-05-12T09:02:50;95285.09;;;11.54;85.67
55424;BME280;41294;42.666;23.350;2023-05-12T09:05:15;95275.91;;;11.37;83.90
55424;BME280;41294;42.666;23.350;2023-05-12T09:07:42;95280.31;;;11.40;84.18
55424;BME280;41294;42.666;23.350;2023-05-12T09:10:14;95278.75;;;11.51;84.14
55424;BME280;41294;42.666;23.350;2023-05-12T09:12:41;95272.78;;;11.30;83.58
55424;BME280;41294;42.666;23.350;2023-05-12T09:15:10;95273.44;;;11.43;83.99
55424;BME280;41294;42.666;23.350;2023-05-12T09:17:39;95277.03;;;11.57;83.03
55424;BME280;41294;42.666;23.350;2023-05-12T09:20:04;95267.16;;;11.88;82.60
55424;BME280;41294;42.666;23.350;2023-05-12T09:22:32;95274.53;;;12.29;80.24
55424;BME280;41294;42.666;23.350;2023-05-12T09:25:13;95274.38;;;12.15;78.85
55424;BME280;41294;42.666;23.350;2023-05-12T09:27:39;95266.00;;;11.98;79.88
55424;BME280;41294;42.666;23.350;2023-05-12T09:30:05;95269.84;;;12.33;78.66
55424;BME280;41294;42.666;23.350;2023-05-12T09:32:33;95270.72;;;12.12;79.25
55424;BME280;41294;42.666;23.350;2023-05-12T09:35:06;95256.63;;;11.97;80.34
55424;BME280;41294;42.666;23.350;2023-05-12T09:37:35;95266.81;;;11.68;80.56
55424;BME280;41294;42.666;23.350;2023-05-12T09:40:04;95260.84;;;11.86;79.55
55424;BME280;41294;42.666;23.350;2023-05-12T09:42:32;95268.09;;;12.12;79.02
55424;BME280;41294;42.666;23.350;2023-05-12T09:45:00;95273.66;;;12.14;78.44
55424;BME280;41294;42.666;23.350;2023-05-12T09:47:27;95266.47;;;12.24;78.01
55424;BME280;41294;42.666;23.350;2023-05-12T09:49:53;95264.56;;;12.33;76.37
55424;BME280;41294;42.666;23.350;2023-05-12T09:52:21;95275.09;;;12.24;77.17
55424;BME280;41294;42.666;23.350;2023-05-12T09:54:47;95267.94;;;12.69;75.62
55424;BME280;41294;42.666;23.350;2023-05-12T09:57:14;95266.75;;;12.70;74.61
55424;BME280;41294;42.666;23.350;2023-05-12T09:59:42;95249.59;;;12.66;74.94
55424;BME280;41294;42.666;23.350;2023-05-12T10:02:08;95259.78;;;13.17;72.65
55424;BME280;41294;42.666;23.350;2023-05-12T10:04:43;95251.47;;;13.42;71.30
55424;BME280;41294;42.666;23.350;2023-05-12T10:07:11;95253.63;;;13.20;70.97
55424;BME280;41294;42.666;23.350;2023-05-12T10:09:39;95255.63;;;13.34;70.96
55424;BME280;41294;42.666;23.350;2023-05-12T10:12:07;95249.13;;;12.76;72.70
55424;BME280;41294;42.666;23.350;2023-05-12T10:14:33;95255.56;;;13.02;72.01
55424;BME280;41294;42.666;23.350;2023-05-12T10:17:00;95248.53;;;12.81;72.59
55424;BME280;41294;42.666;23.350;2023-05-12T10:19:27;95244.66;;;13.18;71.95
55424;BME280;41294;42.666;23.350;2023-05-12T10:21:55;95237.47;;;13.51;70.48
55424;BME280;41294;42.666;23.350;2023-05-12T10:24:24;95247.22;;;13.68;69.11
55424;BME280;41294;42.666;23.350;2023-05-12T10:26:52;95259.50;;;13.15;69.98
55424;BME280;41294;42.666;23.350;2023-05-12T10:29:18;95235.19;;;13.03;71.48
55424;BME280;41294;42.666;23.350;2023-05-12T10:31:44;95241.06;;;13.71;70.32
55424;BME280;41294;42.666;23.350;2023-05-12T10:34:16;95235.06;;;13.85;68.76
55424;BME280;41294;42.666;23.350;2023-05-12T10:36:45;95234.72;;;13.92;68.45
55424;BME280;41294;42.666;23.350;2023-05-12T10:39:12;95247.72;;;14.13;66.35
55424;BME280;41294;42.666;23.350;2023-05-12T10:41:39;95229.63;;;14.12;67.92
55424;BME280;41294;42.666;23.350;2023-05-12T10:44:26;95230.56;;;14.23;68.14
55424;BME280;41294;42.666;23.350;2023-05-12T10:46:56;95229.06;;;14.46;66.97
55424;BME280;41294;42.666;23.350;2023-05-12T10:49:34;95218.50;;;14.89;66.53
55424;BME280;41294;42.666;23.350;2023-05-12T10:52:03;95217.97;;;15.28;65.34
55424;BME280;41294;42.666;23.350;2023-05-12T10:54:28;95219.41;;;15.15;64.07
55424;BME280;41294;42.666;23.350;2023-05-12T10:56:57;95220.31;;;14.97;65.20
55424;BME280;41294;42.666;23.350;2023-05-12T10:59:25;95223.53;;;15.16;64.91
55424;BME280;41294;42.666;23.350;2023-05-12T11:02:03;95231.94;;;14.71;65.41
55424;BME280;41294;42.666;23.350;2023-05-12T11:07:14;95228.31;;;13.84;68.54
55424;BME280;41294;42.666;23.350;2023-05-12T11:09:45;95229.31;;;14.10;66.71
55424;BME280;41294;42.666;23.350;2023-05-12T11:12:12;95223.44;;;14.15;67.69
55424;BME280;41294;42.666;23.350;2023-05-12T11:14:39;95223.81;;;14.75;64.75
55424;BME280;41294;42.666;23.350;2023-05-12T11:17:06;95233.41;;;14.86;64.50
55424;BME280;41294;42.666;23.350;2023-05-12T11:19:31;95244.44;;;14.71;64.44
55424;BME280;41294;42.666;23.350;2023-05-12T11:22:05;95230.56;;;14.76;65.27
55424;BME280;41294;42.666;23.350;2023-05-12T11:24:32;95231.47;;;14.73;63.33
55424;BME280;41294;42.666;23.350;2023-05-12T11:26:57;95237.50;;;14.87;63.58
55424;BME280;41294;42.666;23.350;2023-05-12T11:29:23;95239.00;;;14.74;63.14
55424;BME280;41294;42.666;23.350;2023-05-12T11:31:51;95241.53;;;14.97;63.44
55424;BME280;41294;42.666;23.350;2023-05-12T11:34:21;95238.06;;;15.20;63.14
55424;BME280;41294;42.666;23.350;2023-05-12T11:36:47;95232.06;;;14.91;62.42
55424;BME280;41294;42.666;23.350;2023-05-12T11:39:17;95246.09;;;14.68;63.62
55424;BME280;41294;42.666;23.350;2023-05-12T11:41:43;95242.78;;;14.44;64.37
55424;BME280;41294;42.666;23.350;2023-05-12T11:44:16;95243.34;;;14.63;63.38
55424;BME280;41294;42.666;23.350;2023-05-12T11:46:56;95243.53;;;14.59;63.75
55424;BME280;41294;42.666;23.350;2023-05-12T11:49:22;95242.38;;;14.75;63.66
55424;BME280;41294;42.666;23.350;2023-05-12T11:51:50;95238.59;;;15.10;61.83
55424;BME280;41294;42.666;23.350;2023-05-12T11:54:16;95231.03;;;14.88;62.65
55424;BME280;41294;42.666;23.350;2023-05-12T11:56:49;95217.13;;;14.65;63.35
55424;BME280;41294;42.666;23.350;2023-05-12T12:01:51;95231.13;;;14.04;64.76
55424;BME280;41294;42.666;23.350;2023-05-12T12:04:16;95234.34;;;14.31;65.96
55424;BME280;41294;42.666;23.350;2023-05-12T12:06:43;95235.81;;;14.32;65.35
55424;BME280;41294;42.666;23.350;2023-05-12T12:09:09;95232.72;;;14.48;65.38
55424;BME280;41294;42.666;23.350;2023-05-12T12:11:34;95244.13;;;14.40;65.02
55424;BME280;41294;42.666;23.350;2023-05-12T12:14:00;95256.81;;;14.36;64.19
55424;BME280;41294;42.666;23.350;2023-05-12T12:16:27;95240.06;;;14.15;64.44
55424;BME280;41294;42.666;23.350;2023-05-12T12:18:54;95246.44;;;14.47;63.76
55424;BME280;41294;42.666;23.350;2023-05-12T12:21:20;95242.97;;;14.41;64.58
55424;BME280;41294;42.666;23.350;2023-05-12T12:23:46;95263.94;;;14.30;62.75
55424;BME280;41294;42.666;23.350;2023-05-12T12:26:12;95247.56;;;14.17;64.58
55424;BME280;41294;42.666;23.350;2023-05-12T12:28:45;95235.38;;;14.48;62.75
55424;BME280;41294;42.666;23.350;2023-05-12T12:31:11;95238.97;;;14.60;63.47
55424;BME280;41294;42.666;23.350;2023-05-12T12:33:37;95241.69;;;14.13;64.31
55424;BME280;41294;42.666;23.350;2023-05-12T12:36:02;95240.31;;;14.41;63.39
55424;BME280;41294;42.666;23.350;2023-05-12T12:38:28;95240.34;;;14.55;63.80
55424;BME280;41294;42.666;23.350;2023-05-12T12:40:55;95237.31;;;14.62;63.86
55424;BME280;41294;42.666;23.350;2023-05-12T12:43:20;95244.91;;;14.69;63.69
55424;BME280;41294;42.666;23.350;2023-05-12T12:45:46;95253.28;;;14.15;62.87
55424;BME280;41294;42.666;23.350;2023-05-12T12:48:11;95235.06;;;13.85;64.23
55424;BME280;41294;42.666;23.350;2023-05-12T12:50:37;95245.91;;;13.96;64.40
55424;BME280;41294;42.666;23.350;2023-05-12T12:53:03;95236.09;;;14.11;64.00
55424;BME280;41294;42.666;23.350;2023-05-12T12:55:29;95240.09;;;14.30;63.18
55424;BME280;41294;42.666;23.350;2023-05-12T12:57:54;95237.88;;;14.14;63.25